Time;durP1;ratioP1;P1;durP2;ratioP2;P2;SDS_P1;SDS_P2;PMS_P1;PMS_P2;Temp;Humidity;BMP_temperature;BMP_pressure;BME280_temperature;BME280_humidity;BME280_pressure;Samples;Min_cycle;Max_cycle;Signal;HPM_P1;HPM_P2
2023/10/11 00:02:01;;;;;;;12.68;6.60;;;19.60;58.00;;;;;;5008511;28;20256;-30
2023/10/11 00:04:31;;;;;;;8.73;6.35;;;19.60;58.00;;;;;;5012742;28;20221;-30
2023/10/11 00:07:02;;;;;;;9.18;5.80;;;19.60;58.00;;;;;;5003530;28;20241;-30
2023/10/11 00:09:38;;;;;;;13.30;7.07;;;19.50;58.00;;;;;;5009796;28;20603;-30
2023/10/11 00:12:11;;;;;;;11.60;6.00;;;19.50;58.00;;;;;;5010298;28;20508;-30
2023/10/11 00:14:42;;;;;;;10.98;6.25;;;19.50;58.00;;;;;;5012678;28;20300;-30
2023/10/11 00:17:14;;;;;;;11.68;5.55;;;19.50;58.00;;;;;;5005225;28;20209;-30
2023/10/11 00:19:45;;;;;;;8.95;5.85;;;19.40;58.00;;;;;;5008006;28;20217;-30
2023/10/11 00:22:17;;;;;;;12.15;6.07;;;19.40;58.00;;;;;;5027067;28;20212;-30
2023/10/11 00:24:47;;;;;;;9.07;5.88;;;19.40;58.00;;;;;;5009960;28;23199;-30
2023/10/11 00:27:17;;;;;;;11.88;5.80;;;19.40;58.00;;;;;;5007438;28;20637;-31
2023/10/11 00:29:44;;;;;;;9.13;5.38;;;19.30;57.90;;;;;;5010625;28;20745;-30
2023/10/11 00:32:11;;;;;;;10.07;6.40;;;19.30;57.90;;;;;;5021534;28;20300;-30
2023/10/11 00:34:40;;;;;;;8.95;5.55;;;19.30;57.90;;;;;;5009913;28;20231;-30
2023/10/11 00:37:09;;;;;;;9.20;5.53;;;19.20;57.90;;;;;;5011056;28;20539;-30
2023/10/11 00:39:37;;;;;;;11.95;5.97;;;19.20;57.90;;;;;;5018799;28;20226;-30
2023/10/11 00:42:07;;;;;;;11.30;6.43;;;19.20;58.00;;;;;;5022588;28;20201;-30
2023/10/11 00:44:38;;;;;;;12.63;5.75;;;19.10;57.90;;;;;;5022137;28;20210;-31
2023/10/11 00:47:07;;;;;;;10.27;5.70;;;19.10;57.90;;;;;;5017961;28;20288;-30
2023/10/11 00:49:39;;;;;;;10.15;5.18;;;19.10;57.90;;;;;;5006246;28;20209;-31
2023/10/11 00:52:07;;;;;;;10.43;5.07;;;19.00;57.90;;;;;;5011730;28;20675;-30
2023/10/11 00:54:43;;;;;;;9.32;5.50;;;19.00;57.90;;;;;;5013673;28;20232;-30
2023/10/11 00:57:18;;;;;;;9.95;5.40;;;19.00;57.90;;;;;;5005398;28;20197;-30
2023/10/11 00:59:48;;;;;;;8.48;5.55;;;19.00;57.90;;;;;;5005133;28;20212;-30
2023/10/11 01:02:15;;;;;;;10.73;5.82;;;18.90;57.90;;;;;;5017754;28;20233;-30
2023/10/11 01:04:44;;;;;;;8.07;5.45;;;18.90;58.50;;;;;;5019593;28;20306;-31
2023/10/11 01:07:11;;;;;;;10.02;5.28;;;18.90;57.90;;;;;;5014980;28;20205;-31
2023/10/11 01:09:40;;;;;;;9.85;5.50;;;18.80;57.90;;;;;;5021638;28;20197;-31
2023/10/11 01:12:07;;;;;;;9.98;5.35;;;18.80;57.90;;;;;;5027332;28;20221;-31
2023/10/11 01:14:56;;;;;;;10.15;5.70;;;18.80;57.90;;;;;;5014233;28;20209;-30
2023/10/11 01:17:31;;;;;;;8.55;5.15;;;18.80;57.90;;;;;;5018265;28;20229;-31
2023/10/11 01:19:59;;;;;;;10.05;5.90;;;18.80;57.90;;;;;;5014144;28;20248;-31
2023/10/11 01:22:27;;;;;;;7.70;5.80;;;18.70;57.90;;;;;;5027099;28;20201;-31
2023/10/11 01:24:58;;;;;;;10.35;4.85;;;18.70;57.90;;;;;;5028667;28;20216;-31
2023/10/11 01:27:30;;;;;;;8.82;5.40;;;18.70;57.90;;;;;;5018437;28;20204;-31
2023/10/11 01:29:57;;;;;;;9.15;5.43;;;18.60;57.90;;;;;;5029801;28;20563;-31
2023/10/11 01:32:27;;;;;;;10.23;5.47;;;18.60;57.90;;;;;;5027271;28;20219;-31
2023/10/11 01:34:56;;;;;;;9.13;5.55;;;18.60;58.00;;;;;;5028273;28;20201;-30
2023/10/11 01:37:26;;;;;;;7.63;4.65;;;18.60;58.00;;;;;;5026326;28;20201;-31
2023/10/11 01:39:53;;;;;;;8.48;4.88;;;18.60;57.90;;;;;;5004440;28;20225;-31
2023/10/11 01:42:27;;;;;;;13.05;5.53;;;18.50;57.90;;;;;;5016743;28;20477;-31
2023/10/11 01:44:57;;;;;;;9.15;5.72;;;18.50;57.90;;;;;;5004319;28;20206;-31
2023/10/11 01:47:24;;;;;;;8.45;5.32;;;18.50;57.90;;;;;;5012631;28;20213;-30
2023/10/11 01:49:53;;;;;;;8.25;5.10;;;18.50;57.90;;;;;;5011393;28;20747;-31
2023/10/11 01:52:26;;;;;;;14.50;5.97;;;18.50;58.00;;;;;;5017089;28;20255;-31
2023/10/11 01:54:56;;;;;;;11.25;5.82;;;18.50;58.00;;;;;;5004074;28;20221;-31
2023/10/11 01:57:25;;;;;;;8.43;5.53;;;18.50;58.00;;;;;;5005576;28;20227;-31
2023/10/11 01:59:54;;;;;;;11.95;5.90;;;18.40;57.90;;;;;;5007973;28;20227;-31
2023/10/11 02:02:27;;;;;;;10.25;5.57;;;18.40;57.90;;;;;;5012295;28;20271;-31
2023/10/11 02:04:59;;;;;;;10.40;5.72;;;18.40;58.00;;;;;;5014815;28;20292;-32
2023/10/11 02:07:26;;;;;;;12.93;6.07;;;18.40;58.00;;;;;;5022954;28;20303;-31
2023/10/11 02:09:55;;;;;;;11.30;6.28;;;18.40;58.00;;;;;;5008887;28;20282;-31
2023/10/11 02:12:22;;;;;;;12.68;5.65;;;18.30;58.00;;;;;;5018630;28;20292;-31
2023/10/11 02:14:50;;;;;;;9.88;6.47;;;18.30;58.00;;;;;;5011573;28;20205;-31
2023/10/11 02:17:23;;;;;;;8.88;5.18;;;18.30;58.10;;;;;;5020374;28;20193;-30
2023/10/11 02:19:53;;;;;;;11.75;6.53;;;18.30;58.70;;;;;;5008080;28;20237;-31
2023/10/11 02:22:22;;;;;;;7.55;5.63;;;18.30;58.10;;;;;;5037921;28;20283;-31
2023/10/11 02:24:51;;;;;;;11.43;6.38;;;18.30;58.10;;;;;;5011699;28;20640;-31
2023/10/11 02:27:22;;;;;;;12.75;6.75;;;18.30;58.10;;;;;;5010857;28;20208;-31
2023/10/11 02:29:50;;;;;;;13.45;6.65;;;18.30;58.10;;;;;;4999115;28;20213;-30
2023/10/11 02:32:19;;;;;;;12.13;6.20;;;18.30;58.10;;;;;;5017113;28;20233;-31
2023/10/11 02:34:49;;;;;;;12.23;6.15;;;18.30;58.10;;;;;;5024767;28;20264;-31
2023/10/11 02:37:22;;;;;;;12.18;6.72;;;18.30;58.10;;;;;;5020438;28;20576;-31
2023/10/11 02:39:55;;;;;;;12.63;6.70;;;18.20;58.20;;;;;;5007529;28;20229;-31
2023/10/11 02:42:22;;;;;;;10.93;5.80;;;18.20;58.20;;;;;;5010960;28;20194;-31
2023/10/11 02:44:50;;;;;;;12.52;5.95;;;18.20;58.80;;;;;;5006677;28;20674;-31
2023/10/11 02:47:22;;;;;;;11.05;5.93;;;18.20;58.20;;;;;;5002467;28;20209;-31
2023/10/11 02:49:53;;;;;;;12.20;6.65;;;18.20;58.20;;;;;;5006112;28;20209;-31
2023/10/11 02:52:29;;;;;;;11.32;6.47;;;18.20;58.30;;;;;;5033723;28;20255;-31
2023/10/11 02:54:59;;;;;;;12.20;6.22;;;18.20;58.30;;;;;;5006564;28;20221;-31
2023/10/11 02:57:26;;;;;;;10.38;5.78;;;18.20;58.30;;;;;;5003123;28;20228;-30
2023/10/11 02:59:56;;;;;;;13.25;6.57;;;18.20;58.30;;;;;;5003047;28;20226;-31
2023/10/11 03:02:29;;;;;;;11.30;5.80;;;18.20;58.30;;;;;;5007066;28;20630;-31
2023/10/11 03:05:01;;;;;;;10.07;6.35;;;18.20;58.30;;;;;;5016792;28;20304;-31
2023/10/11 03:07:33;;;;;;;12.65;6.10;;;18.20;58.30;;;;;;5028478;28;20201;-31
2023/10/11 03:10:01;;;;;;;10.52;6.28;;;18.20;58.30;;;;;;5019132;28;20208;-31
2023/10/11 03:12:31;;;;;;;12.77;6.28;;;18.10;58.30;;;;;;5030476;28;20209;-31
2023/10/11 03:15:06;;;;;;;9.18;6.30;;;18.10;58.30;;;;;;5020306;28;20922;-31
2023/10/11 03:17:43;;;;;;;12.18;5.88;;;18.10;58.30;;;;;;5010446;28;20197;-31
2023/10/11 03:20:36;;;;;;;11.15;6.10;;;18.10;58.30;;;;;;5024688;28;20213;-31
2023/10/11 03:23:10;;;;;;;9.38;5.60;;;18.10;58.30;;;;;;5010913;28;20288;-31
2023/10/11 03:25:38;;;;;;;12.80;5.85;;;18.10;58.30;;;;;;5020836;28;20253;-31
2023/10/11 03:28:06;;;;;;;13.80;6.22;;;18.10;58.40;;;;;;5019252;28;20260;-31
2023/10/11 03:30:38;;;;;;;10.75;5.93;;;18.10;58.40;;;;;;5007687;28;20691;-31
2023/10/11 03:33:07;;;;;;;12.55;6.05;;;18.10;58.40;;;;;;5006514;28;20726;-32
2023/10/11 03:35:38;;;;;;;8.82;5.63;;;18.00;58.40;;;;;;5006191;28;20706;-31
2023/10/11 03:38:17;;;;;;;13.50;6.20;;;18.00;58.40;;;;;;5027124;28;20217;-31
2023/10/11 03:41:14;;;;;;;11.57;5.80;;;18.00;58.40;;;;;;5009613;28;20275;-31
2023/10/11 03:43:47;;;;;;;11.40;6.30;;;18.00;58.40;;;;;;5018796;28;20257;-31
2023/10/11 03:46:15;;;;;;;10.20;6.00;;;18.00;58.40;;;;;;5020921;28;20210;-31
2023/10/11 03:48:51;;;;;;;10.02;5.80;;;18.00;58.40;;;;;;5016212;28;20222;-31
2023/10/11 03:51:24;;;;;;;8.70;6.00;;;18.00;58.40;;;;;;5016606;28;20216;-31
2023/10/11 03:53:53;;;;;;;9.70;5.18;;;18.00;58.50;;;;;;5022857;28;20213;-31
2023/10/11 03:56:20;;;;;;;10.75;5.93;;;17.90;58.40;;;;;;5022380;28;20314;-31
2023/10/11 03:58:52;;;;;;;13.70;6.18;;;17.90;58.40;;;;;;5016195;28;20213;-31
2023/10/11 04:03:50;;;;;;;10.60;5.93;;;17.90;58.40;;;;;;5010445;28;20217;-30
2023/10/11 04:06:22;;;;;;;11.35;6.18;;;17.90;58.40;;;;;;5014715;28;20217;-31
2023/10/11 04:09:02;;;;;;;12.35;6.07;;;17.90;58.50;;;;;;5017199;28;20608;-31
2023/10/11 04:11:37;;;;;;;13.85;6.18;;;17.90;58.50;;;;;;5008015;28;20307;-31
2023/10/11 04:14:17;;;;;;;8.68;6.13;;;17.90;58.50;;;;;;5017676;28;20213;-31
2023/10/11 04:16:46;;;;;;;12.00;5.63;;;17.90;58.50;;;;;;5008605;28;20202;-31
2023/10/11 04:19:14;;;;;;;10.43;5.88;;;17.90;58.50;;;;;;5018569;28;20258;-31
2023/10/11 04:24:22;;;;;;;11.38;5.40;;;17.90;58.60;;;;;;5016139;28;20201;-31
2023/10/11 04:29:38;;;;;;;9.80;5.97;;;17.90;58.60;;;;;;5008435;28;20212;-31
2023/10/11 04:32:14;;;;;;;12.23;6.05;;;17.90;58.60;;;;;;5021195;28;20758;-31
2023/10/11 04:34:55;;;;;;;10.93;5.97;;;17.90;58.60;;;;;;5025056;28;20235;-31
2023/10/11 04:37:33;;;;;;;11.00;6.28;;;17.90;58.60;;;;;;5023053;28;20220;-31
2023/10/11 04:43:06;;;;;;;13.25;5.82;;;17.90;58.60;;;;;;5009536;28;20220;-31
2023/10/11 04:45:47;;;;;;;11.15;6.18;;;17.80;58.60;;;;;;5009662;28;20972;-31
2023/10/11 04:48:30;;;;;;;12.93;6.13;;;17.80;58.70;;;;;;5002560;28;20196;-31
2023/10/11 04:51:06;;;;;;;10.00;6.20;;;17.80;58.70;;;;;;5009202;28;20220;-31
2023/10/11 04:53:46;;;;;;;12.48;6.03;;;17.80;58.70;;;;;;4998337;28;20235;-31
2023/10/11 04:59:06;;;;;;;11.23;5.85;;;17.80;58.60;;;;;;5004352;28;20359;-31
2023/10/11 05:01:58;;;;;;;12.48;6.13;;;17.80;58.60;;;;;;4997557;28;20241;-30
2023/10/11 05:04:33;;;;;;;11.43;5.97;;;17.80;58.80;;;;;;5003669;28;20594;-31
2023/10/11 05:07:07;;;;;;;12.35;6.22;;;17.80;58.70;;;;;;5009204;28;20300;-31
2023/10/11 05:09:41;;;;;;;14.35;6.18;;;17.80;58.70;;;;;;5012315;28;20292;-31
2023/10/11 05:12:19;;;;;;;15.50;7.03;;;17.80;58.70;;;;;;5025814;28;20201;-30
2023/10/11 05:19:56;;;;;;;10.30;6.45;;;17.80;58.80;;;;;;5008391;28;20275;-31
2023/10/11 05:32:42;;;;;;;10.95;6.45;;;17.70;58.80;;;;;;5020135;28;20366;-31
2023/10/11 05:51:51;;;;;;;21.52;7.80;;;17.70;58.80;;;;;;5007075;28;20244;-31
2023/10/11 05:54:34;;;;;;;19.02;7.95;;;17.70;58.90;;;;;;5038281;28;20205;-31
2023/10/11 05:57:06;;;;;;;14.68;8.20;;;17.70;58.90;;;;;;5016922;28;20220;-31
2023/10/11 05:59:35;;;;;;;15.70;7.60;;;17.70;58.90;;;;;;5020769;28;20217;-31
2023/10/11 06:02:18;;;;;;;16.77;7.70;;;17.70;58.90;;;;;;5001508;28;20247;-31
2023/10/11 06:04:49;;;;;;;12.50;6.60;;;17.70;58.90;;;;;;5017228;28;20699;-31
2023/10/11 06:07:20;;;;;;;11.27;7.82;;;17.70;58.90;;;;;;5002585;28;20213;-31
2023/10/11 06:09:52;;;;;;;15.23;7.35;;;17.70;58.90;;;;;;5007211;28;20209;-31
2023/10/11 06:12:27;;;;;;;16.58;7.95;;;17.70;58.90;;;;;;5002481;28;20206;-31
2023/10/11 06:14:56;;;;;;;12.80;7.25;;;17.70;59.00;;;;;;4999229;28;20402;-31
2023/10/11 06:17:33;;;;;;;24.33;8.10;;;17.70;59.00;;;;;;5003930;28;20781;-31
2023/10/11 06:23:02;;;;;;;15.70;7.20;;;17.70;59.00;;;;;;5017337;28;20213;-31
2023/10/11 06:28:18;;;;;;;19.30;7.63;;;17.80;59.10;;;;;;4993735;28;20501;-32
2023/10/11 06:30:46;;;;;;;14.80;7.05;;;17.80;59.10;;;;;;5011855;28;20247;-31
2023/10/11 06:33:21;;;;;;;14.70;7.18;;;17.80;59.10;;;;;;5002002;28;20238;-31
2023/10/11 06:35:53;;;;;;;13.82;7.35;;;17.80;59.10;;;;;;4993465;28;20212;-31
2023/10/11 06:38:21;;;;;;;17.02;7.55;;;17.90;59.20;;;;;;4996047;28;20201;-31
2023/10/11 06:40:54;;;;;;;13.95;7.60;;;17.90;59.10;;;;;;5004108;28;20581;-31
2023/10/11 06:43:23;;;;;;;14.45;7.72;;;17.90;59.20;;;;;;4996976;28;20212;-31
2023/10/11 06:45:52;;;;;;;13.82;7.38;;;17.90;59.20;;;;;;4996324;28;20256;-31
2023/10/11 06:48:25;;;;;;;14.13;7.13;;;17.90;59.20;;;;;;5017325;28;20205;-31
2023/10/11 06:50:55;;;;;;;17.70;7.07;;;17.90;59.20;;;;;;5008978;28;20221;-31
2023/10/11 06:53:22;;;;;;;14.20;6.57;;;17.90;59.20;;;;;;5002828;28;20462;-32
2023/10/11 06:55:58;;;;;;;14.63;7.07;;;18.00;59.20;;;;;;5016431;28;20609;-31
2023/10/11 06:58:43;;;;;;;12.90;6.43;;;18.00;59.20;;;;;;5011145;28;20217;-31
2023/10/11 07:01:14;;;;;;;11.02;6.43;;;18.00;59.10;;;;;;5027394;28;20312;-31
2023/10/11 07:03:41;;;;;;;9.98;5.45;;;18.00;59.20;;;;;;5018914;28;20583;-31
2023/10/11 07:06:22;;;;;;;13.07;6.65;;;18.00;59.20;;;;;;5013685;28;20205;-32
2023/10/11 07:08:53;;;;;;;13.52;5.93;;;18.00;59.20;;;;;;5018965;28;20234;-32
2023/10/11 07:11:50;;;;;;;10.70;6.32;;;18.10;59.30;;;;;;5029407;28;20225;-31
2023/10/11 07:14:18;;;;;;;13.75;6.03;;;18.10;59.20;;;;;;5013426;28;20210;-31
2023/10/11 07:16:46;;;;;;;16.50;6.60;;;18.10;59.20;;;;;;5001894;28;20211;-32
2023/10/11 07:19:16;;;;;;;9.95;5.85;;;18.10;59.20;;;;;;5029151;28;20679;-31
2023/10/11 07:24:31;;;;;;;10.35;5.75;;;18.20;59.20;;;;;;5019629;28;20218;-32
2023/10/11 07:27:08;;;;;;;13.27;6.45;;;18.20;59.20;;;;;;5010257;28;20267;-32
2023/10/11 07:29:44;;;;;;;12.85;6.15;;;18.20;59.30;;;;;;5032261;28;20211;-32
2023/10/11 07:32:22;;;;;;;14.43;6.05;;;18.30;59.30;;;;;;5025871;28;20626;-32
2023/10/11 07:34:54;;;;;;;14.88;6.38;;;18.30;59.30;;;;;;5013995;28;20278;-32
2023/10/11 07:37:26;;;;;;;13.32;6.28;;;18.30;59.30;;;;;;5023989;28;20204;-31
2023/10/11 07:40:00;;;;;;;14.43;5.80;;;18.40;59.40;;;;;;5007333;28;20296;-32
2023/10/11 07:42:37;;;;;;;15.68;6.20;;;18.40;59.30;;;;;;5013182;28;20208;-32
2023/10/11 07:45:12;;;;;;;15.00;6.10;;;18.40;59.30;;;;;;5012460;28;20202;-32
2023/10/11 07:47:48;;;;;;;11.07;5.65;;;18.40;59.30;;;;;;5007830;28;20201;-32
2023/10/11 07:50:22;;;;;;;13.40;6.50;;;18.50;59.30;;;;;;5014219;28;20217;-31
2023/10/11 07:52:55;;;;;;;11.30;5.68;;;18.50;59.30;;;;;;5014630;28;21020;-31
2023/10/11 07:55:26;;;;;;;12.30;6.05;;;18.50;59.30;;;;;;5009781;28;20204;-31
2023/10/11 07:58:00;;;;;;;12.80;6.60;;;18.60;59.30;;;;;;5009315;28;20205;-31
2023/10/11 08:00:30;;;;;;;12.40;6.20;;;18.60;59.40;;;;;;5019866;28;20209;-32
2023/10/11 08:03:03;;;;;;;18.77;6.57;;;18.60;59.40;;;;;;5027051;28;20228;-31
2023/10/11 08:05:36;;;;;;;15.88;6.57;;;18.60;59.40;;;;;;5018762;28;20205;-31
2023/10/11 08:08:12;;;;;;;13.93;6.13;;;18.70;59.40;;;;;;5016364;28;20244;-31
2023/10/11 08:10:45;;;;;;;14.73;6.30;;;18.70;59.40;;;;;;5014964;28;20774;-31
2023/10/11 08:13:23;;;;;;;13.73;6.50;;;18.80;59.40;;;;;;5009744;28;20737;-32
2023/10/11 08:15:58;;;;;;;12.07;6.40;;;18.80;59.40;;;;;;5012447;28;20205;-31
2023/10/11 08:18:28;;;;;;;16.33;7.32;;;18.80;59.40;;;;;;5029386;28;20224;-31
2023/10/11 08:20:58;;;;;;;19.80;6.57;;;18.90;59.60;;;;;;5009967;28;20268;-32
2023/10/11 08:23:29;;;;;;;16.05;6.80;;;18.90;59.50;;;;;;5012570;28;20190;-32
2023/10/11 08:26:05;;;;;;;11.48;6.60;;;19.00;59.50;;;;;;5015337;28;20487;-32
2023/10/11 08:28:36;;;;;;;15.35;6.85;;;19.00;60.20;;;;;;5023502;28;20288;-32
2023/10/11 08:31:04;;;;;;;11.85;6.40;;;19.00;59.60;;;;;;5009746;28;20648;-31
2023/10/11 08:33:33;;;;;;;13.52;6.28;;;19.10;59.60;;;;;;5025133;28;20267;-32
2023/10/11 08:36:04;;;;;;;17.77;6.97;;;19.10;59.60;;;;;;5016500;28;20592;-31
2023/10/11 08:38:35;;;;;;;11.40;5.88;;;19.20;59.60;;;;;;5020051;28;20212;-31
2023/10/11 08:41:06;;;;;;;11.85;5.82;;;19.20;59.60;;;;;;5013557;28;20201;-31
2023/10/11 08:43:36;;;;;;;14.82;6.78;;;19.30;59.70;;;;;;5018904;28;20579;-32
2023/10/11 08:46:09;;;;;;;13.98;6.72;;;19.30;59.70;;;;;;5016512;28;20255;-32
2023/10/11 08:48:38;;;;;;;16.73;7.50;;;19.40;59.70;;;;;;5012106;28;20197;-32
2023/10/11 08:51:11;;;;;;;12.45;7.53;;;19.50;59.80;;;;;;5010499;28;20209;-32
2023/10/11 08:53:46;;;;;;;15.90;7.10;;;19.50;59.80;;;;;;5012826;28;20211;-32
2023/10/11 08:56:18;;;;;;;14.68;7.07;;;19.60;59.80;;;;;;5008145;28;20225;-32
2023/10/11 08:58:51;;;;;;;15.18;7.43;;;19.60;59.80;;;;;;5033407;28;20204;-32
2023/10/11 09:01:19;;;;;;;12.93;7.57;;;19.70;59.80;;;;;;5018093;28;20240;-32
2023/10/11 09:04:05;;;;;;;13.40;7.00;;;19.80;59.80;;;;;;5026681;28;20209;-32
2023/10/11 09:06:36;;;;;;;18.85;7.85;;;19.80;59.80;;;;;;5010083;28;20859;-32
2023/10/11 09:09:14;;;;;;;17.15;7.40;;;19.90;59.80;;;;;;5008832;28;20233;-32
2023/10/11 09:11:59;;;;;;;18.70;7.65;;;19.90;59.80;;;;;;5012075;28;20216;-32
2023/10/11 09:14:28;;;;;;;12.65;7.00;;;20.00;59.80;;;;;;5013072;28;20211;-32
2023/10/11 09:17:02;;;;;;;13.90;6.95;;;20.00;59.80;;;;;;5005190;28;20208;-32
2023/10/11 09:19:51;;;;;;;15.80;6.68;;;20.10;59.80;;;;;;5015410;28;20212;-32
2023/10/11 09:22:18;;;;;;;12.88;6.40;;;20.10;59.80;;;;;;5017752;28;20723;-32
2023/10/11 09:25:06;;;;;;;13.95;6.68;;;20.20;59.90;;;;;;5009094;28;20296;-32
2023/10/11 09:27:49;;;;;;;17.80;7.13;;;20.30;59.90;;;;;;5012532;28;20216;-32
2023/10/11 09:30:20;;;;;;;16.45;6.97;;;20.30;59.90;;;;;;5011835;28;20217;-32
2023/10/11 09:32:59;;;;;;;19.08;7.38;;;20.40;59.90;;;;;;5018636;28;20207;-32
2023/10/11 09:35:31;;;;;;;24.33;8.07;;;20.40;59.80;;;;;;5009202;28;20885;-31
2023/10/11 09:38:01;;;;;;;16.45;7.50;;;20.50;59.80;;;;;;5009895;28;20279;-31
2023/10/11 09:40:31;;;;;;;19.23;8.07;;;20.50;59.80;;;;;;5014057;28;20279;-31
2023/10/11 09:43:00;;;;;;;17.50;8.05;;;20.60;59.80;;;;;;5006331;28;20280;-31
2023/10/11 09:45:41;;;;;;;13.75;7.80;;;20.60;59.70;;;;;;5011080;28;20256;-31
2023/10/11 09:48:12;;;;;;;16.60;7.97;;;20.60;59.70;;;;;;5011231;28;20218;-31
2023/10/11 09:50:41;;;;;;;15.82;7.57;;;20.60;59.60;;;;;;5019077;28;20214;-31
2023/10/11 09:53:11;;;;;;;21.10;8.80;;;20.70;59.70;;;;;;5013294;28;20557;-31
2023/10/11 09:55:57;;;;;;;13.68;7.95;;;20.70;59.70;;;;;;5023895;28;20312;-31
2023/10/11 09:58:41;;;;;;;16.88;7.68;;;20.70;59.60;;;;;;5018726;28;20252;-31
2023/10/11 10:01:23;;;;;;;14.10;7.35;;;20.80;59.70;;;;;;5007033;28;20229;-31
2023/10/11 10:03:53;;;;;;;19.25;7.50;;;20.80;59.70;;;;;;5009856;28;20198;-31
2023/10/11 10:06:26;;;;;;;18.67;8.20;;;20.90;59.70;;;;;;5002697;28;20221;-31
2023/10/11 10:09:23;;;;;;;18.80;8.70;;;20.90;59.60;;;;;;4991490;28;20205;-30
2023/10/11 10:12:05;;;;;;;19.48;7.80;;;20.90;59.60;;;;;;5012588;28;20239;-31
2023/10/11 10:14:41;;;;;;;12.95;7.68;;;21.00;59.60;;;;;;5013049;28;20272;-31
2023/10/11 10:17:11;;;;;;;14.45;7.82;;;21.00;59.70;;;;;;5016114;28;20239;-31
2023/10/11 10:19:45;;;;;;;16.35;8.50;;;21.10;59.60;;;;;;5010746;28;20244;-31
2023/10/11 10:22:15;;;;;;;15.52;8.38;;;21.10;59.50;;;;;;5009491;28;20308;-31
2023/10/11 10:24:47;;;;;;;15.02;7.25;;;21.10;59.50;;;;;;5014289;28;20292;-31
2023/10/11 10:27:33;;;;;;;15.82;7.75;;;21.10;59.40;;;;;;5010994;28;20203;-33
2023/10/11 10:30:04;;;;;;;12.00;7.90;;;21.20;59.50;;;;;;5012483;28;20578;-31
2023/10/11 10:32:32;;;;;;;20.65;8.73;;;21.10;59.40;;;;;;5010349;28;20686;-31
2023/10/11 10:35:22;;;;;;;12.80;8.63;;;21.20;59.40;;;;;;5011538;28;20212;-31
2023/10/11 10:37:56;;;;;;;20.05;8.82;;;21.20;59.40;;;;;;5012071;28;20216;-31
2023/10/11 10:40:25;;;;;;;19.17;8.63;;;21.20;59.50;;;;;;5015683;28;20221;-31
2023/10/11 10:43:19;;;;;;;16.15;8.55;;;21.20;59.40;;;;;;5004203;28;20225;-31
2023/10/11 10:45:52;;;;;;;22.95;8.27;;;21.30;59.40;;;;;;5012861;28;20280;-31
2023/10/11 10:48:24;;;;;;;21.58;8.60;;;21.30;59.30;;;;;;5009967;28;20839;-31
2023/10/11 10:51:07;;;;;;;18.70;7.97;;;21.30;59.40;;;;;;5013170;28;21976;-31
2023/10/11 10:53:37;;;;;;;19.40;8.27;;;21.30;59.40;;;;;;5022200;28;20204;-32
2023/10/11 10:56:08;;;;;;;14.65;7.68;;;21.40;59.50;;;;;;5013633;28;21030;-31
2023/10/11 10:58:35;;;;;;;13.23;7.80;;;21.40;59.50;;;;;;5024418;28;20611;-31
2023/10/11 11:01:04;;;;;;;18.33;7.45;;;21.50;59.40;;;;;;5013850;28;20237;-31
2023/10/11 11:03:35;;;;;;;26.48;8.55;;;21.50;59.40;;;;;;5002453;28;20669;-31
2023/10/11 11:06:03;;;;;;;19.58;7.95;;;21.50;59.30;;;;;;5010701;28;20221;-31
2023/10/11 11:08:37;;;;;;;19.90;8.02;;;21.50;59.20;;;;;;5017680;28;20209;-31
2023/10/11 11:11:25;;;;;;;15.07;7.22;;;21.60;59.30;;;;;;5010520;28;20844;-31
2023/10/11 11:13:55;;;;;;;18.65;7.13;;;21.60;59.30;;;;;;5014577;28;20229;-31
2023/10/11 11:16:26;;;;;;;11.50;7.32;;;21.60;59.30;;;;;;5021167;28;20333;-31
2023/10/11 11:18:53;;;;;;;19.73;7.22;;;21.70;59.40;;;;;;5005615;28;20205;-31
2023/10/11 11:21:25;;;;;;;17.90;7.88;;;21.70;59.40;;;;;;5011277;28;20343;-32
2023/10/11 11:23:53;;;;;;;14.23;7.90;;;21.70;59.40;;;;;;5019497;28;20323;-32
2023/10/11 11:26:27;;;;;;;19.15;7.07;;;21.70;59.30;;;;;;5017839;28;20224;-32
2023/10/11 11:29:16;;;;;;;25.38;8.45;;;21.80;59.30;;;;;;5013345;28;20201;-31
2023/10/11 11:31:53;;;;;;;18.58;7.70;;;21.80;59.40;;;;;;5012598;28;20292;-31
2023/10/11 11:34:34;;;;;;;27.17;8.15;;;21.90;59.30;;;;;;5012557;28;20202;-31
2023/10/11 11:37:07;;;;;;;20.42;7.18;;;21.90;59.50;;;;;;5013085;28;20205;-31
2023/10/11 11:39:40;;;;;;;16.45;6.93;;;21.90;59.40;;;;;;5014058;28;20656;-31
2023/10/11 11:42:19;;;;;;;19.95;7.85;;;22.00;59.40;;;;;;5023597;28;20275;-31
2023/10/11 11:44:49;;;;;;;19.33;6.78;;;22.00;59.30;;;;;;5023149;28;20300;-31
2023/10/11 11:47:22;;;;;;;18.90;6.88;;;22.00;59.40;;;;;;5012427;28;20197;-31
2023/10/11 11:49:58;;;;;;;25.05;7.60;;;22.10;59.40;;;;;;5018171;28;20267;-31
2023/10/11 11:52:28;;;;;;;24.00;7.40;;;22.10;59.40;;;;;;5015577;28;20201;-31
2023/10/11 11:55:02;;;;;;;18.63;6.30;;;22.20;59.50;;;;;;5019813;28;20212;-31
2023/10/11 11:57:31;;;;;;;20.33;6.90;;;22.30;59.40;;;;;;5022172;28;20718;-31
2023/10/11 12:00:04;;;;;;;13.65;6.85;;;22.30;59.40;;;;;;5027074;28;20326;-31
2023/10/11 12:02:32;;;;;;;21.63;6.85;;;22.40;59.40;;;;;;5023337;28;20237;-31
2023/10/11 12:05:04;;;;;;;13.27;6.10;;;22.40;59.30;;;;;;5014599;28;20243;-31
2023/10/11 12:07:31;;;;;;;16.30;6.40;;;22.50;59.30;;;;;;5014063;28;20240;-31
2023/10/11 12:10:10;;;;;;;19.15;7.18;;;22.50;59.40;;;;;;5023202;28;20209;-31
2023/10/11 12:12:37;;;;;;;24.35;6.72;;;22.60;59.30;;;;;;5006816;28;20248;-31
2023/10/11 12:15:16;;;;;;;17.60;7.38;;;22.60;59.40;;;;;;5009664;28;20766;-31
2023/10/11 12:17:49;;;;;;;15.07;6.45;;;22.70;59.30;;;;;;5010071;28;20216;-31
2023/10/11 12:20:16;;;;;;;20.10;7.20;;;22.80;59.20;;;;;;5027910;28;20220;-31
2023/10/11 12:22:46;;;;;;;16.08;6.60;;;22.80;59.10;;;;;;5025897;28;20224;-31
2023/10/11 12:25:13;;;;;;;14.68;6.57;;;22.80;59.10;;;;;;5021378;28;20243;-32
2023/10/11 12:27:41;;;;;;;22.25;8.10;;;22.90;59.10;;;;;;5017123;28;20201;-31
2023/10/11 12:30:20;;;;;;;19.83;7.70;;;22.90;59.10;;;;;;5027718;28;20258;-31
2023/10/11 12:32:52;;;;;;;21.50;7.28;;;23.00;59.00;;;;;;5024074;28;20719;-31
2023/10/11 12:35:23;;;;;;;18.20;6.57;;;23.10;59.70;;;;;;5010039;28;21034;-31
2023/10/11 12:37:50;;;;;;;16.25;5.90;;;23.10;59.00;;;;;;5015291;28;20205;-31
2023/10/11 12:40:23;;;;;;;23.83;7.53;;;23.20;59.10;;;;;;5020644;28;20200;-31
2023/10/11 12:42:51;;;;;;;15.98;6.50;;;23.20;59.10;;;;;;5018751;28;20740;-31
2023/10/11 12:45:20;;;;;;;20.60;6.55;;;23.30;58.80;;;;;;5025150;28;20233;-31
2023/10/11 12:47:49;;;;;;;13.18;5.75;;;23.30;58.80;;;;;;5015863;28;20219;-31
2023/10/11 12:50:22;;;;;;;17.45;5.95;;;23.30;58.80;;;;;;5012187;28;20194;-31
2023/10/11 12:52:52;;;;;;;11.23;5.32;;;23.40;58.80;;;;;;4999659;28;20944;-31
2023/10/11 12:55:22;;;;;;;19.02;6.53;;;23.40;58.60;;;;;;5011959;28;20379;-31
2023/10/11 12:57:53;;;;;;;16.85;6.43;;;23.50;58.50;;;;;;5019919;28;20209;-31
2023/10/11 13:00:31;;;;;;;14.70;6.20;;;23.50;58.70;;;;;;5016252;28;20247;-31
2023/10/11 13:03:18;;;;;;;15.98;6.18;;;23.50;58.70;;;;;;5023382;28;20249;-31
2023/10/11 13:05:54;;;;;;;17.90;6.07;;;23.60;58.50;;;;;;5019727;28;20200;-31
2023/10/11 13:08:26;;;;;;;12.02;5.45;;;23.60;58.60;;;;;;5017816;28;20279;-31
2023/10/11 13:10:54;;;;;;;18.52;5.88;;;23.60;58.70;;;;;;5012093;28;20272;-31
2023/10/11 13:13:24;;;;;;;17.05;5.47;;;23.70;58.70;;;;;;5021464;28;20213;-31
2023/10/11 13:16:01;;;;;;;14.73;5.68;;;23.70;58.50;;;;;;5017127;28;20827;-31
2023/10/11 13:18:37;;;;;;;11.63;5.32;;;23.80;58.60;;;;;;5016577;28;20200;-31
2023/10/11 13:21:11;;;;;;;16.65;5.35;;;23.80;58.30;;;;;;5028581;28;20375;-31
2023/10/11 13:23:43;;;;;;;12.05;5.55;;;23.80;58.40;;;;;;4991608;28;20314;-31
2023/10/11 13:26:18;;;;;;;12.75;5.13;;;23.90;58.50;;;;;;5012163;28;20194;-31
2023/10/11 13:28:53;;;;;;;12.57;5.43;;;23.90;58.30;;;;;;5017450;28;20198;-31
2023/10/11 13:31:20;;;;;;;17.52;5.65;;;23.90;58.30;;;;;;5014448;28;20236;-31
2023/10/11 13:33:53;;;;;;;11.65;5.20;;;24.00;58.20;;;;;;5022908;28;20264;-31
2023/10/11 13:36:33;;;;;;;9.18;5.20;;;24.00;58.00;;;;;;5007187;28;20201;-31
2023/10/11 13:39:01;;;;;;;12.50;5.65;;;24.00;57.90;;;;;;5007497;28;20222;-33
2023/10/11 13:41:30;;;;;;;11.75;4.78;;;24.10;58.00;;;;;;5021615;28;20248;-33
2023/10/11 13:43:57;;;;;;;13.70;4.88;;;24.10;58.00;;;;;;5015124;28;20225;-33
2023/10/11 13:46:25;;;;;;;15.52;5.22;;;24.20;57.90;;;;;;5017567;28;20283;-33
2023/10/11 13:49:05;;;;;;;10.70;4.70;;;24.20;58.00;;;;;;5007582;28;20217;-33
2023/10/11 13:51:36;;;;;;;11.63;5.07;;;24.20;57.90;;;;;;5016940;28;20248;-33
2023/10/11 13:54:18;;;;;;;15.10;4.72;;;24.20;57.90;;;;;;5020399;28;20714;-34
2023/10/11 13:56:50;;;;;;;18.08;5.18;;;24.20;58.00;;;;;;5013891;28;20569;-34
2023/10/11 13:59:21;;;;;;;17.77;6.10;;;24.30;57.80;;;;;;5022059;28;20304;-33
2023/10/11 14:04:47;;;;;;;14.27;5.18;;;24.30;57.60;;;;;;5010003;28;20252;-34